Time;durP1;ratioP1;P1;durP2;ratioP2;P2;SDS_P1;SDS_P2;PMS_P1;PMS_P2;Temp;Humidity;BMP_temperature;BMP_pressure;BME280_temperature;BME280_humidity;BME280_pressure;Samples;Min_cycle;Max_cycle;Signal;HPM_P1;HPM_P2
2021/09/10 00:00:00;;;;;;;10.77;9.87;;;21.10;99.70;;;;;;5066828;28;20462;-63
2021/09/10 00:02:26;;;;;;;11.40;10.30;;;21.10;99.80;;;;;;5063346;28;20462;-64
2021/09/10 00:04:53;;;;;;;10.47;9.67;;;21.10;99.90;;;;;;5060402;28;21071;-63
2021/09/10 00:07:20;;;;;;;9.80;8.87;;;21.10;99.90;;;;;;5064130;28;20455;-63
2021/09/10 00:09:47;;;;;;;12.57;11.50;;;21.00;99.90;;;;;;5067116;28;20782;-63
2021/09/10 00:12:14;;;;;;;12.30;11.20;;;21.00;99.90;;;;;;5063002;28;20467;-64
2021/09/10 00:14:41;;;;;;;10.60;9.70;;;21.00;99.90;;;;;;5056944;28;20467;-63
2021/09/10 00:17:09;;;;;;;11.90;10.73;;;21.00;99.90;;;;;;5063278;28;20472;-63
2021/09/10 00:19:36;;;;;;;11.10;10.20;;;21.00;99.90;;;;;;5059885;28;20474;-63
2021/09/10 00:22:03;;;;;;;11.33;10.20;;;20.90;99.90;;;;;;5062753;28;20475;-64
2021/09/10 00:24:29;;;;;;;13.40;11.00;;;20.90;99.90;;;;;;5067162;28;20812;-63
2021/09/10 00:26:56;;;;;;;11.13;10.03;;;20.90;99.90;;;;;;5064106;28;20481;-64
2021/09/10 00:29:23;;;;;;;12.73;11.53;;;20.90;99.90;;;;;;5058736;28;20485;-63
2021/09/10 00:31:50;;;;;;;12.43;11.23;;;20.90;99.90;;;;;;5053200;28;20483;-63
2021/09/10 00:34:18;;;;;;;13.30;12.23;;;20.90;99.90;;;;;;5057300;28;20470;-64
2021/09/10 00:36:46;;;;;;;11.23;10.23;;;20.90;99.90;;;;;;5062101;28;20957;-63
2021/09/10 00:39:13;;;;;;;11.13;10.33;;;20.90;99.90;;;;;;5057722;28;20793;-64
2021/09/10 00:41:40;;;;;;;10.90;10.03;;;20.80;99.90;;;;;;5073251;28;20469;-64
2021/09/10 00:44:07;;;;;;;11.40;10.50;;;20.80;99.90;;;;;;5059489;28;20789;-63
2021/09/10 00:46:34;;;;;;;11.07;10.07;;;20.80;99.90;;;;;;5060660;28;20477;-64
2021/09/10 00:49:02;;;;;;;11.73;10.63;;;20.80;99.90;;;;;;5065090;28;20485;-64
2021/09/10 00:51:30;;;;;;;12.33;11.33;;;20.80;99.90;;;;;;5066245;28;20820;-64
2021/09/10 00:53:57;;;;;;;12.43;11.33;;;20.80;99.90;;;;;;5059961;28;20819;-64
2021/09/10 00:56:24;;;;;;;11.10;10.20;;;20.80;99.90;;;;;;5058973;28;20477;-64
2021/09/10 00:58:51;;;;;;;11.67;10.60;;;20.70;99.90;;;;;;5066208;28;20471;-64
2021/09/10 01:01:18;;;;;;;11.83;10.73;;;20.70;99.90;;;;;;5065699;28;20800;-64
2021/09/10 01:03:45;;;;;;;10.27;9.30;;;20.70;99.90;;;;;;5060421;28;20470;-64
2021/09/10 01:06:12;;;;;;;10.27;9.47;;;20.70;99.90;;;;;;5058830;28;20471;-63
2021/09/10 01:08:42;;;;;;;10.80;9.97;;;20.70;99.90;;;;;;5070637;28;20474;-64
2021/09/10 01:11:09;;;;;;;10.73;10.00;;;20.70;99.90;;;;;;5071534;28;20471;-63
2021/09/10 01:13:37;;;;;;;11.10;10.20;;;20.70;99.90;;;;;;5071367;28;21012;-63
2021/09/10 01:16:05;;;;;;;11.03;10.13;;;20.70;99.90;;;;;;5072294;28;21002;-63
2021/09/10 01:18:32;;;;;;;11.00;10.10;;;20.70;99.90;;;;;;5072815;28;20793;-63
2021/09/10 01:20:58;;;;;;;11.47;10.47;;;20.70;99.90;;;;;;5072733;28;20473;-64
2021/09/10 01:23:25;;;;;;;11.30;10.20;;;20.70;99.90;;;;;;5071924;28;20468;-64
2021/09/10 01:25:53;;;;;;;10.73;9.73;;;20.70;99.90;;;;;;5071098;28;20477;-64
2021/09/10 01:28:20;;;;;;;10.80;10.00;;;20.70;99.90;;;;;;5070492;28;20466;-64
2021/09/10 01:30:48;;;;;;;10.50;9.53;;;20.70;99.90;;;;;;5070886;28;20476;-63
2021/09/10 01:33:15;;;;;;;11.00;10.00;;;20.70;99.90;;;;;;5070226;28;21223;-63
2021/09/10 01:35:42;;;;;;;11.40;10.50;;;20.70;99.90;;;;;;5071068;28;20466;-63
2021/09/10 01:38:10;;;;;;;11.30;10.40;;;20.70;99.90;;;;;;5071161;28;20470;-63
2021/09/10 01:40:37;;;;;;;10.63;9.73;;;20.70;99.90;;;;;;5072294;28;20458;-63
2021/09/10 01:43:05;;;;;;;10.60;9.70;;;20.70;99.90;;;;;;5072082;28;20458;-64
2021/09/10 01:45:32;;;;;;;10.37;9.47;;;20.70;99.90;;;;;;5072551;28;20469;-64
2021/09/10 01:48:00;;;;;;;10.50;9.60;;;20.70;99.90;;;;;;5072479;28;20473;-63
2021/09/10 01:50:27;;;;;;;9.57;8.90;;;20.80;99.90;;;;;;5071864;28;20464;-64
2021/09/10 01:52:55;;;;;;;9.30;8.60;;;20.80;99.90;;;;;;5072499;28;20464;-63
2021/09/10 01:55:22;;;;;;;9.97;9.17;;;20.80;99.90;;;;;;5071950;28;20493;-63
2021/09/10 01:57:51;;;;;;;11.10;10.20;;;20.80;99.90;;;;;;5072348;28;20473;-63
2021/09/10 02:00:20;;;;;;;10.53;9.73;;;20.80;99.90;;;;;;5074119;28;20484;-63
2021/09/10 02:02:47;;;;;;;10.70;9.90;;;20.80;99.90;;;;;;5076616;28;20527;-63
2021/09/10 02:05:15;;;;;;;11.10;10.20;;;20.80;99.90;;;;;;5075834;28;20464;-63
2021/09/10 02:07:42;;;;;;;10.13;9.27;;;20.70;99.90;;;;;;5076259;28;20458;-63
2021/09/10 02:10:12;;;;;;;11.00;10.10;;;20.70;99.90;;;;;;5075809;28;20462;-64
2021/09/10 02:12:39;;;;;;;14.23;11.30;;;20.70;99.90;;;;;;5076291;28;20538;-63
2021/09/10 02:15:08;;;;;;;10.37;9.57;;;20.70;99.90;;;;;;5075648;28;20466;-64
2021/09/10 02:17:36;;;;;;;10.10;9.30;;;20.70;99.90;;;;;;5076058;28;20465;-63
2021/09/10 02:20:03;;;;;;;10.80;10.00;;;20.70;99.90;;;;;;5075923;28;20986;-63
2021/09/10 02:22:30;;;;;;;11.10;10.30;;;20.70;99.90;;;;;;5075437;28;20945;-64
2021/09/10 02:24:57;;;;;;;11.03;10.23;;;20.70;99.90;;;;;;5076007;28;20480;-63
2021/09/10 02:27:23;;;;;;;10.70;9.80;;;20.70;99.90;;;;;;5075396;28;20488;-63
2021/09/10 02:29:50;;;;;;;10.20;9.40;;;20.70;99.90;;;;;;5075871;28;20956;-63
2021/09/10 02:32:17;;;;;;;11.10;10.20;;;20.70;99.90;;;;;;5075282;28;20470;-64
2021/09/10 02:34:45;;;;;;;12.10;11.00;;;20.60;99.90;;;;;;5075823;28;20458;-64
2021/09/10 02:37:12;;;;;;;11.73;10.83;;;20.60;99.90;;;;;;5075270;28;20474;-64
2021/09/10 02:39:39;;;;;;;11.77;10.67;;;20.60;99.90;;;;;;5075769;28;20490;-64
2021/09/10 02:42:06;;;;;;;11.37;10.37;;;20.60;99.90;;;;;;5075765;28;20470;-63
2021/09/10 02:44:33;;;;;;;10.83;9.80;;;20.60;99.90;;;;;;5075219;28;20468;-64
2021/09/10 02:47:00;;;;;;;11.47;10.50;;;20.60;99.90;;;;;;5075632;28;20469;-63
2021/09/10 02:49:27;;;;;;;11.40;10.50;;;20.60;99.90;;;;;;5074801;28;20478;-64
2021/09/10 02:51:55;;;;;;;11.13;10.23;;;20.60;99.90;;;;;;5075510;28;20484;-63
2021/09/10 02:54:22;;;;;;;11.90;10.90;;;20.60;99.90;;;;;;5074851;28;20462;-63
2021/09/10 02:56:48;;;;;;;11.80;10.70;;;20.60;99.90;;;;;;5075486;28;20479;-63
2021/09/10 02:59:15;;;;;;;12.93;11.87;;;20.60;99.90;;;;;;5074823;28;20474;-63
2021/09/10 03:01:44;;;;;;;10.90;10.00;;;20.60;99.90;;;;;;5075361;28;20804;-63
2021/09/10 03:04:12;;;;;;;11.67;10.60;;;20.60;99.90;;;;;;5074867;28;20473;-63
2021/09/10 03:06:39;;;;;;;12.13;10.97;;;20.60;99.90;;;;;;5075198;28;20956;-63
2021/09/10 03:09:07;;;;;;;11.80;10.80;;;20.50;99.90;;;;;;5074942;28;20474;-63
2021/09/10 03:11:34;;;;;;;11.80;10.70;;;20.50;99.90;;;;;;5074037;28;20811;-63
2021/09/10 03:14:01;;;;;;;12.83;11.70;;;20.50;99.90;;;;;;5075242;28;20838;-64
2021/09/10 03:16:30;;;;;;;11.77;10.83;;;20.50;99.90;;;;;;5074769;28;20939;-63
2021/09/10 03:18:57;;;;;;;11.83;10.93;;;20.50;99.90;;;;;;5074886;28;20466;-64
2021/09/10 03:21:24;;;;;;;11.53;10.53;;;20.50;99.90;;;;;;5074363;28;20520;-63
2021/09/10 03:23:51;;;;;;;12.30;11.20;;;20.50;99.90;;;;;;5074860;28;20466;-63
2021/09/10 03:26:19;;;;;;;12.57;11.43;;;20.50;99.90;;;;;;5074296;28;20474;-63
2021/09/10 03:28:46;;;;;;;11.40;10.50;;;20.50;99.90;;;;;;5075086;28;20494;-64
2021/09/10 03:31:13;;;;;;;12.83;11.67;;;20.50;99.90;;;;;;5074159;28;20807;-63
2021/09/10 03:33:40;;;;;;;12.63;11.73;;;20.50;99.90;;;;;;5075105;28;20462;-63
2021/09/10 03:36:06;;;;;;;12.27;11.17;;;20.50;99.90;;;;;;5074835;28;20987;-64
2021/09/10 03:38:33;;;;;;;13.00;11.80;;;20.50;99.90;;;;;;5074151;28;20489;-63
2021/09/10 03:41:00;;;;;;;11.27;10.37;;;20.50;99.90;;;;;;5074692;28;20510;-63
2021/09/10 03:43:28;;;;;;;10.80;10.00;;;20.50;99.90;;;;;;5073990;28;20459;-63
2021/09/10 03:45:55;;;;;;;13.07;12.07;;;20.50;99.90;;;;;;5074541;28;20463;-63
2021/09/10 03:48:22;;;;;;;13.67;12.47;;;20.50;99.90;;;;;;5074089;28;20481;-63
2021/09/10 03:50:49;;;;;;;12.60;11.60;;;20.50;99.90;;;;;;5074334;28;20538;-63
2021/09/10 03:53:15;;;;;;;13.17;11.87;;;20.40;99.90;;;;;;5073856;28;20470;-63
2021/09/10 03:55:42;;;;;;;11.97;10.90;;;20.40;99.90;;;;;;5074222;28;20459;-63
2021/09/10 03:58:09;;;;;;;11.83;10.80;;;20.40;99.90;;;;;;5074294;28;20558;-63
2021/09/10 04:00:37;;;;;;;12.83;11.67;;;20.40;99.90;;;;;;5073916;28;20810;-64
2021/09/10 04:03:04;;;;;;;11.63;10.63;;;20.30;99.90;;;;;;5074108;28;20960;-63
2021/09/10 04:05:31;;;;;;;13.60;12.50;;;20.30;99.90;;;;;;5073597;28;20474;-63
2021/09/10 04:07:58;;;;;;;12.63;11.63;;;20.30;99.90;;;;;;5073941;28;20466;-63
2021/09/10 04:10:25;;;;;;;13.27;12.10;;;20.30;99.90;;;;;;5073601;28;20979;-63
2021/09/10 04:12:53;;;;;;;13.00;11.87;;;20.30;99.90;;;;;;5073856;28;20461;-63
2021/09/10 04:15:20;;;;;;;13.50;12.50;;;20.20;99.90;;;;;;5073495;28;20992;-63
2021/09/10 04:17:48;;;;;;;13.73;12.53;;;20.20;99.90;;;;;;5074000;28;20483;-64
2021/09/10 04:20:15;;;;;;;13.13;12.00;;;20.20;99.90;;;;;;5073719;28;20490;-63
2021/09/10 04:22:42;;;;;;;13.93;12.20;;;20.20;99.90;;;;;;5072780;28;20465;-64
2021/09/10 04:25:10;;;;;;;13.37;12.23;;;20.20;99.90;;;;;;5073384;28;20471;-63
2021/09/10 04:27:37;;;;;;;15.10;13.53;;;20.20;99.90;;;;;;5073145;28;20536;-63
2021/09/10 04:30:04;;;;;;;14.53;13.23;;;20.20;99.90;;;;;;5073621;28;20466;-63
2021/09/10 04:32:31;;;;;;;12.93;11.73;;;20.10;99.90;;;;;;5073054;28;20482;-63
2021/09/10 04:34:59;;;;;;;14.20;12.90;;;20.10;99.90;;;;;;5073577;28;20466;-63
2021/09/10 04:37:26;;;;;;;13.77;12.50;;;20.10;99.90;;;;;;5072977;28;20474;-63
2021/09/10 04:39:53;;;;;;;12.80;11.80;;;20.10;99.90;;;;;;5073477;28;20466;-63
2021/09/10 04:42:20;;;;;;;13.40;12.33;;;20.10;99.90;;;;;;5072860;28;20481;-64
2021/09/10 04:44:47;;;;;;;13.80;12.60;;;20.10;99.90;;;;;;5073436;28;20803;-63
2021/09/10 04:47:14;;;;;;;14.10;12.90;;;20.10;99.90;;;;;;5073145;28;20462;-63
2021/09/10 04:49:41;;;;;;;14.07;12.77;;;20.10;99.90;;;;;;5072858;28;20458;-64
2021/09/10 04:52:09;;;;;;;13.27;12.13;;;20.10;99.90;;;;;;5073099;28;20468;-63
2021/09/10 04:54:36;;;;;;;14.00;12.70;;;20.10;99.90;;;;;;5072710;28;20470;-63
2021/09/10 04:57:04;;;;;;;14.50;12.70;;;20.10;99.90;;;;;;5072972;28;20960;-63
2021/09/10 04:59:31;;;;;;;14.20;12.93;;;20.10;99.90;;;;;;5072762;28;20496;-64
2021/09/10 05:01:58;;;;;;;12.67;11.73;;;20.10;99.90;;;;;;5072896;28;20994;-63
2021/09/10 05:04:25;;;;;;;14.07;12.87;;;20.10;99.90;;;;;;5072698;28;20473;-63
2021/09/10 05:06:52;;;;;;;13.70;12.53;;;20.10;99.90;;;;;;5073112;28;20468;-63
2021/09/10 05:09:21;;;;;;;14.20;12.87;;;20.10;99.90;;;;;;5072700;28;20474;-63
2021/09/10 05:11:48;;;;;;;13.67;12.47;;;20.10;99.90;;;;;;5072626;28;20465;-63
2021/09/10 05:14:15;;;;;;;14.93;13.63;;;20.10;99.90;;;;;;5072935;28;20462;-63
2021/09/10 05:16:43;;;;;;;14.67;13.00;;;20.10;99.90;;;;;;5072404;28;20489;-63
2021/09/10 05:19:12;;;;;;;15.50;14.20;;;20.10;99.90;;;;;;5072686;28;21030;-63
2021/09/10 05:21:39;;;;;;;15.53;14.23;;;20.10;99.90;;;;;;5072329;28;20470;-63
2021/09/10 05:24:06;;;;;;;14.90;13.57;;;20.10;99.90;;;;;;5072798;28;20480;-63
2021/09/10 05:26:34;;;;;;;17.37;15.77;;;20.20;99.90;;;;;;5072368;28;20458;-63
2021/09/10 05:29:01;;;;;;;17.67;16.13;;;20.20;99.90;;;;;;5072752;28;20469;-63
2021/09/10 05:31:28;;;;;;;17.00;15.50;;;20.20;99.90;;;;;;5072142;28;20470;-63
2021/09/10 05:33:55;;;;;;;18.33;16.63;;;20.20;99.90;;;;;;5072549;28;20478;-64
2021/09/10 05:36:22;;;;;;;20.50;18.70;;;20.20;99.90;;;;;;5072526;28;20790;-64
2021/09/10 05:38:49;;;;;;;16.40;14.90;;;20.20;99.90;;;;;;5072051;28;20466;-64
2021/09/10 05:41:16;;;;;;;15.57;14.27;;;20.20;99.90;;;;;;5072609;28;20470;-62
2021/09/10 05:43:44;;;;;;;17.60;15.97;;;20.20;99.90;;;;;;5072129;28;20975;-63
2021/09/10 05:46:11;;;;;;;18.87;16.97;;;20.20;99.90;;;;;;5072377;28;20480;-63
2021/09/10 05:48:38;;;;;;;21.10;18.80;;;20.20;99.90;;;;;;5071908;28;20470;-63
2021/09/10 05:51:06;;;;;;;21.67;19.47;;;20.30;99.90;;;;;;5072326;28;20961;-63
2021/09/10 05:53:33;;;;;;;21.70;19.80;;;20.30;99.90;;;;;;5071854;28;20462;-63
2021/09/10 05:56:00;;;;;;;21.97;19.77;;;20.30;99.90;;;;;;5072430;28;20472;-63
2021/09/10 05:58:27;;;;;;;24.07;18.80;;;20.30;99.90;;;;;;5071826;28;20960;-63
2021/09/10 06:00:55;;;;;;;19.90;18.10;;;20.40;99.90;;;;;;5072258;28;20469;-63
2021/09/10 06:03:22;;;;;;;22.20;19.03;;;20.40;99.90;;;;;;5072498;28;20466;-63
2021/09/10 06:05:49;;;;;;;22.80;20.70;;;20.40;99.90;;;;;;5071804;28;20462;-63
2021/09/10 06:08:16;;;;;;;25.23;19.80;;;20.40;99.90;;;;;;5072295;28;20503;-63
2021/09/10 06:10:44;;;;;;;24.17;21.90;;;20.50;99.90;;;;;;5071905;28;20454;-63
2021/09/10 06:13:11;;;;;;;23.53;21.07;;;20.50;99.90;;;;;;5072238;28;20611;-62
2021/09/10 06:15:38;;;;;;;22.67;20.47;;;20.50;99.90;;;;;;5071933;28;20474;-62
2021/09/10 06:18:07;;;;;;;23.93;21.73;;;20.60;99.90;;;;;;5071981;28;20454;-63
2021/09/10 06:20:33;;;;;;;24.80;22.27;;;20.60;99.90;;;;;;5071665;28;20472;-63
2021/09/10 06:23:00;;;;;;;26.70;24.10;;;20.70;99.90;;;;;;5071984;28;20465;-63
2021/09/10 06:25:27;;;;;;;26.63;23.90;;;20.70;99.90;;;;;;5072056;28;20466;-62
2021/09/10 06:27:54;;;;;;;24.50;22.00;;;20.70;99.90;;;;;;5071938;28;20458;-63
2021/09/10 06:30:21;;;;;;;24.50;22.17;;;20.70;99.90;;;;;;5071995;28;20472;-62
2021/09/10 06:32:48;;;;;;;23.47;21.23;;;20.70;99.90;;;;;;5071342;28;20808;-63
2021/09/10 06:35:18;;;;;;;19.60;17.83;;;20.80;99.90;;;;;;5071976;28;20477;-63
2021/09/10 06:37:45;;;;;;;21.20;19.17;;;20.80;99.90;;;;;;5071575;28;20523;-62
2021/09/10 06:40:13;;;;;;;20.70;18.70;;;20.90;99.90;;;;;;5071993;28;20815;-63
2021/09/10 06:42:42;;;;;;;21.70;19.70;;;20.90;99.90;;;;;;5071317;28;20458;-62
2021/09/10 06:45:09;;;;;;;23.10;20.97;;;21.00;99.90;;;;;;5072030;28;20481;-63
2021/09/10 06:47:36;;;;;;;20.93;18.97;;;21.00;99.90;;;;;;5074046;28;20465;-63
2021/09/10 06:50:07;;;;;;;22.40;20.10;;;21.00;99.90;;;;;;5075476;28;20458;-63
2021/09/10 06:52:35;;;;;;;20.60;18.80;;;21.10;99.90;;;;;;5075098;28;20481;-63
2021/09/10 06:55:02;;;;;;;21.07;19.10;;;21.10;99.90;;;;;;5075334;28;20459;-63
2021/09/10 06:57:29;;;;;;;21.07;18.23;;;21.10;99.90;;;;;;5075369;28;20462;-63
2021/09/10 06:59:56;;;;;;;17.57;15.93;;;21.20;99.90;;;;;;5074931;28;20811;-63
2021/09/10 07:02:22;;;;;;;22.20;20.17;;;21.30;99.90;;;;;;5075154;28;20472;-62
2021/09/10 07:04:49;;;;;;;21.27;19.17;;;21.30;99.90;;;;;;5074560;28;20950;-63
2021/09/10 07:07:16;;;;;;;26.63;24.03;;;21.40;99.90;;;;;;5075182;28;20466;-63
2021/09/10 07:09:46;;;;;;;27.27;24.47;;;21.40;99.90;;;;;;5074579;28;20466;-63
2021/09/10 07:12:12;;;;;;;25.63;23.03;;;21.40;99.90;;;;;;5074998;28;20486;-63
2021/09/10 07:14:39;;;;;;;27.47;24.67;;;21.50;99.90;;;;;;5074643;28;20964;-63
2021/09/10 07:17:06;;;;;;;34.27;30.70;;;21.50;99.90;;;;;;5075023;28;20549;-63
2021/09/10 07:19:33;;;;;;;42.17;37.67;;;21.60;99.90;;;;;;5074500;28;20473;-62
2021/09/10 07:22:00;;;;;;;47.20;42.30;;;21.60;99.90;;;;;;5074904;28;20467;-64
2021/09/10 07:24:27;;;;;;;63.90;54.43;;;21.60;99.90;;;;;;5074870;28;20466;-62
2021/09/10 07:26:55;;;;;;;52.87;47.13;;;21.70;99.90;;;;;;5074447;28;20944;-64
2021/09/10 07:29:23;;;;;;;54.10;48.20;;;21.70;99.90;;;;;;5074647;28;20466;-63
2021/09/10 07:31:50;;;;;;;52.10;46.53;;;21.80;99.90;;;;;;5074123;28;20991;-63
2021/09/10 07:34:17;;;;;;;49.50;44.43;;;21.80;99.90;;;;;;5074750;28;20459;-63
2021/09/10 07:36:48;;;;;;;40.70;36.50;;;21.90;99.90;;;;;;5074065;28;20472;-63
2021/09/10 07:39:16;;;;;;;35.93;32.23;;;21.90;99.90;;;;;;5074454;28;21048;-63
2021/09/10 07:41:42;;;;;;;31.67;28.47;;;22.00;99.90;;;;;;5074167;28;20484;-63
2021/09/10 07:44:13;;;;;;;26.77;24.20;;;22.00;99.90;;;;;;5074336;28;20458;-63
2021/09/10 07:46:40;;;;;;;32.00;28.60;;;22.10;99.90;;;;;;5073910;28;20524;-63
2021/09/10 07:49:08;;;;;;;31.90;28.70;;;22.10;99.90;;;;;;5074414;28;20546;-63
2021/09/10 07:51:35;;;;;;;27.33;24.73;;;22.20;99.90;;;;;;5074289;28;20476;-63
2021/09/10 07:54:02;;;;;;;26.43;23.90;;;22.30;99.90;;;;;;5073930;28;20465;-63
2021/09/10 07:56:29;;;;;;;29.87;26.83;;;22.30;99.90;;;;;;5074412;28;20466;-63
2021/09/10 07:58:56;;;;;;;28.03;25.20;;;22.40;99.90;;;;;;5073526;28;20462;-63
2021/09/10 08:01:24;;;;;;;23.47;21.20;;;22.50;99.90;;;;;;5074114;28;20795;-63
2021/09/10 08:03:51;;;;;;;31.93;28.60;;;22.50;99.90;;;;;;5073722;28;20462;-63
2021/09/10 08:06:18;;;;;;;37.80;34.23;;;22.60;99.90;;;;;;5073967;28;20461;-63
2021/09/10 08:08:45;;;;;;;32.00;28.93;;;22.70;99.90;;;;;;5073501;28;20960;-63
2021/09/10 08:11:12;;;;;;;27.83;25.17;;;22.70;99.90;;;;;;5073995;28;20967;-63
2021/09/10 08:13:39;;;;;;;28.40;25.40;;;22.80;99.90;;;;;;5073470;28;20959;-64
2021/09/10 08:16:08;;;;;;;34.70;31.20;;;22.80;99.90;;;;;;5073796;28;20802;-63
2021/09/10 08:18:36;;;;;;;33.10;29.87;;;22.90;99.90;;;;;;5073690;28;20481;-64
2021/09/10 08:21:03;;;;;;;35.10;31.50;;;22.90;99.90;;;;;;5073219;28;20480;-63
2021/09/10 08:23:30;;;;;;;31.70;28.60;;;23.00;99.90;;;;;;5073622;28;20474;-63
2021/09/10 08:25:57;;;;;;;30.30;26.53;;;23.00;99.90;;;;;;5073274;28;20470;-63
2021/09/10 08:28:24;;;;;;;25.23;22.73;;;23.00;99.90;;;;;;5073482;28;20485;-63
2021/09/10 08:30:50;;;;;;;21.50;19.40;;;23.10;99.90;;;;;;5073158;28;20966;-63
2021/09/10 08:33:18;;;;;;;19.40;17.40;;;23.10;99.90;;;;;;5073239;28;20464;-63
2021/09/10 08:35:46;;;;;;;16.97;15.13;;;23.10;99.90;;;;;;5073001;28;20852;-63
2021/09/10 08:38:13;;;;;;;14.17;12.97;;;23.20;99.90;;;;;;5073336;28;20974;-63
2021/09/10 08:40:42;;;;;;;14.20;12.67;;;23.30;99.90;;;;;;5073488;28;20788;-63
2021/09/10 08:43:09;;;;;;;15.23;12.00;;;23.30;99.90;;;;;;5072799;28;20459;-63
2021/09/10 08:45:36;;;;;;;15.03;12.43;;;23.40;99.90;;;;;;5073394;28;20513;-63
2021/09/10 08:48:03;;;;;;;14.10;12.80;;;23.40;99.90;;;;;;5072719;28;20553;-63
2021/09/10 08:50:30;;;;;;;16.63;15.13;;;23.40;99.90;;;;;;5072892;28;20976;-62
2021/09/10 08:52:58;;;;;;;18.40;16.60;;;23.50;99.90;;;;;;5072785;28;20477;-62
2021/09/10 08:55:25;;;;;;;17.00;15.23;;;23.50;99.90;;;;;;5073092;28;20588;-63
2021/09/10 08:57:54;;;;;;;19.23;17.53;;;23.60;99.90;;;;;;5072614;28;20807;-63
2021/09/10 09:00:28;;;;;;;19.37;17.63;;;23.60;99.90;;;;;;5072964;28;20988;-63
2021/09/10 09:03:00;;;;;;;21.17;18.97;;;23.60;99.90;;;;;;5072516;28;20454;-63
2021/09/10 09:05:28;;;;;;;18.33;16.63;;;23.70;99.90;;;;;;5072998;28;20465;-63
2021/09/10 09:08:07;;;;;;;17.63;15.93;;;23.70;99.90;;;;;;5072570;28;20869;-63
2021/09/10 09:11:01;;;;;;;15.13;13.83;;;23.70;99.90;;;;;;5072432;28;20480;-63
2021/09/10 09:13:30;;;;;;;17.60;16.07;;;23.80;99.90;;;;;;5072903;28;20476;-63
2021/09/10 09:16:18;;;;;;;17.60;15.90;;;23.80;99.90;;;;;;5072860;28;20533;-63
2021/09/10 09:18:47;;;;;;;16.47;14.87;;;23.80;99.90;;;;;;5072391;28;20484;-63
2021/09/10 09:21:14;;;;;;;14.60;13.20;;;23.90;99.90;;;;;;5072768;28;20583;-63
2021/09/10 09:23:43;;;;;;;17.43;15.70;;;23.90;99.90;;;;;;5072243;28;20984;-63
2021/09/10 09:26:17;;;;;;;20.73;18.60;;;23.90;99.90;;;;;;5072838;28;20474;-63
2021/09/10 09:28:46;;;;;;;18.17;16.37;;;23.90;99.90;;;;;;5072083;28;20860;-63
2021/09/10 09:31:13;;;;;;;16.57;15.07;;;24.00;99.90;;;;;;5072511;28;20791;-63
2021/09/10 09:33:41;;;;;;;17.80;16.10;;;24.00;99.90;;;;;;5072305;28;20466;-63
2021/09/10 09:36:10;;;;;;;19.00;17.30;;;24.00;99.90;;;;;;5072379;28;20459;-63
2021/09/10 09:38:39;;;;;;;19.70;17.70;;;24.10;99.90;;;;;;5072082;28;20471;-63
2021/09/10 09:41:09;;;;;;;19.60;17.80;;;24.10;99.90;;;;;;5072425;28;20472;-63
2021/09/10 09:43:37;;;;;;;18.10;15.43;;;24.10;99.90;;;;;;5072005;28;20466;-63
2021/09/10 09:46:07;;;;;;;15.53;14.20;;;24.20;99.90;;;;;;5072487;28;20461;-62
2021/09/10 09:48:37;;;;;;;15.03;13.53;;;24.20;99.90;;;;;;5072107;28;20470;-62
2021/09/10 09:51:04;;;;;;;15.50;14.10;;;24.20;99.90;;;;;;5072342;28;20465;-64
2021/09/10 09:53:31;;;;;;;14.47;13.07;;;24.30;99.90;;;;;;5072031;28;20906;-63
2021/09/10 09:55:59;;;;;;;14.10;12.80;;;24.30;99.90;;;;;;5072586;28;20466;-63
2021/09/10 09:58:30;;;;;;;15.60;13.90;;;24.30;99.90;;;;;;5072228;28;20470;-63
2021/09/10 10:00:57;;;;;;;15.47;13.87;;;24.30;99.90;;;;;;5072131;28;20454;-62
2021/09/10 10:03:24;;;;;;;14.63;13.17;;;24.30;99.90;;;;;;5072248;28;20474;-63
2021/09/10 10:06:00;;;;;;;14.37;12.83;;;24.40;99.90;;;;;;5071751;28;20811;-63
2021/09/10 10:08:32;;;;;;;13.90;12.60;;;24.40;99.90;;;;;;5072132;28;20474;-63
2021/09/10 10:11:07;;;;;;;12.47;11.37;;;24.40;99.90;;;;;;5072090;28;20511;-63
2021/09/10 10:13:35;;;;;;;12.60;11.40;;;24.40;99.90;;;;;;5072398;28;20476;-63
2021/09/10 10:16:03;;;;;;;13.90;12.63;;;24.50;99.90;;;;;;5071856;28;20462;-63
2021/09/10 10:18:39;;;;;;;15.80;14.30;;;24.40;99.90;;;;;;5072147;28;20830;-63
2021/09/10 10:21:07;;;;;;;15.47;14.10;;;24.50;99.90;;;;;;5072412;28;21607;-63
2021/09/10 10:23:55;;;;;;;12.93;11.63;;;24.50;99.90;;;;;;5075951;28;20470;-63
2021/09/10 10:26:35;;;;;;;12.70;11.47;;;24.60;99.90;;;;;;5075974;28;20462;-63
2021/09/10 10:29:10;;;;;;;12.80;11.73;;;24.60;99.90;;;;;;5075895;28;20474;-64
2021/09/10 10:31:57;;;;;;;12.90;11.73;;;24.60;99.90;;;;;;5075346;28;20474;-63
2021/09/10 10:34:24;;;;;;;12.87;11.00;;;24.60;99.90;;;;;;5075210;28;20476;-63
2021/09/10 10:36:51;;;;;;;12.27;11.17;;;24.70;99.90;;;;;;5075636;28;20473;-63
2021/09/10 10:39:26;;;;;;;11.50;10.50;;;24.70;99.90;;;;;;5075686;28;20809;-63
2021/09/10 10:41:56;;;;;;;10.97;10.07;;;24.70;99.90;;;;;;5075425;28;21308;-63
2021/09/10 10:44:49;;;;;;;12.73;11.73;;;24.80;99.90;;;;;;5075418;28;20489;-63
2021/09/10 10:47:19;;;;;;;27.80;25.00;;;24.80;99.90;;;;;;5055571;28;20557;-63
2021/09/10 10:49:48;;;;;;;18.50;16.73;;;24.80;99.90;;;;;;5055625;28;20770;-63
2021/09/10 10:52:35;;;;;;;17.87;16.27;;;24.80;99.90;;;;;;5054575;28;20567;-62
2021/09/10 10:55:22;;;;;;;17.67;16.00;;;24.90;99.90;;;;;;5054847;28;20470;-62
2021/09/10 10:57:50;;;;;;;23.37;21.07;;;24.90;99.90;;;;;;5055841;28;20455;-62
2021/09/10 11:00:49;;;;;;;22.37;20.27;;;25.00;99.90;;;;;;5055030;28;21594;-63
2021/09/10 11:03:36;;;;;;;25.73;23.23;;;25.00;99.90;;;;;;5054152;28;20770;-63
2021/09/10 11:06:27;;;;;;;23.23;20.83;;;25.00;99.90;;;;;;5054831;28;20530;-62
2021/09/10 11:08:54;;;;;;;19.17;17.47;;;25.00;99.90;;;;;;5054444;28;20550;-63
2021/09/10 11:11:21;;;;;;;21.43;19.43;;;25.00;99.90;;;;;;5055128;28;20539;-63
2021/09/10 11:13:48;;;;;;;19.67;17.67;;;25.00;99.90;;;;;;5054644;28;20467;-62
2021/09/10 11:16:31;;;;;;;20.50;18.57;;;25.00;99.90;;;;;;5054775;28;20463;-62
2021/09/10 11:18:58;;;;;;;18.07;16.47;;;25.00;99.90;;;;;;5054380;28;20969;-62
2021/09/10 11:21:30;;;;;;;19.40;17.50;;;25.00;99.90;;;;;;5054896;28;20459;-63
2021/09/10 11:24:06;;;;;;;18.87;16.83;;;25.10;99.90;;;;;;5054583;28;20503;-63
2021/09/10 11:26:36;;;;;;;16.50;14.90;;;25.10;99.90;;;;;;5054846;28;20470;-63
2021/09/10 11:29:11;;;;;;;17.87;16.20;;;25.20;99.90;;;;;;5054280;28;20558;-63
2021/09/10 11:31:39;;;;;;;19.33;17.53;;;25.20;99.90;;;;;;5054357;28;20474;-63
2021/09/10 11:34:06;;;;;;;19.37;17.43;;;25.20;99.90;;;;;;5054064;28;20812;-63
2021/09/10 11:36:33;;;;;;;17.77;16.27;;;25.20;99.90;;;;;;5054537;28;21071;-63
2021/09/10 11:39:02;;;;;;;17.77;16.23;;;25.30;99.90;;;;;;5054179;28;20472;-63
2021/09/10 11:41:29;;;;;;;18.43;16.63;;;25.30;99.90;;;;;;5054835;28;20539;-63
2021/09/10 11:44:04;;;;;;;15.20;13.90;;;25.30;99.90;;;;;;5054076;28;20470;-63
2021/09/10 11:46:31;;;;;;;18.10;16.50;;;25.30;99.90;;;;;;5054443;28;20459;-63
2021/09/10 11:48:59;;;;;;;17.17;15.53;;;25.30;99.90;;;;;;5054096;28;20969;-63
2021/09/10 11:51:42;;;;;;;18.80;17.27;;;25.30;99.90;;;;;;5054346;28;20467;-63
2021/09/10 11:54:12;;;;;;;16.37;14.70;;;25.40;99.90;;;;;;5053915;28;20467;-64
2021/09/10 11:56:39;;;;;;;15.57;14.20;;;25.40;99.90;;;;;;5054458;28;20458;-64
2021/09/10 11:59:25;;;;;;;16.60;15.10;;;25.40;99.90;;;;;;5053946;28;20473;-64
2021/09/10 12:01:53;;;;;;;15.07;13.77;;;25.40;99.90;;;;;;5054450;28;20967;-64
2021/09/10 12:04:36;;;;;;;18.27;16.53;;;25.40;99.90;;;;;;5053606;28;20474;-62
2021/09/10 12:07:05;;;;;;;16.57;15.07;;;25.40;99.90;;;;;;5053678;28;20889;-62
2021/09/10 12:09:33;;;;;;;15.40;14.10;;;25.50;99.90;;;;;;5054060;28;20467;-63
2021/09/10 12:12:09;;;;;;;18.27;16.50;;;25.50;99.90;;;;;;5053859;28;20814;-63
2021/09/10 12:14:38;;;;;;;14.70;13.30;;;25.50;99.90;;;;;;5054241;28;20471;-63
2021/09/10 12:17:15;;;;;;;15.40;14.00;;;25.60;99.90;;;;;;5053449;28;20470;-63
2021/09/10 12:20:06;;;;;;;17.23;15.53;;;25.60;99.90;;;;;;5053847;28;20474;-63
2021/09/10 12:22:38;;;;;;;17.33;15.70;;;25.60;99.90;;;;;;5051068;28;21320;-63
2021/09/10 12:25:25;;;;;;;16.70;14.23;;;25.60;99.90;;;;;;5053755;28;20477;-64
2021/09/10 12:27:54;;;;;;;15.67;14.37;;;25.70;99.90;;;;;;5054002;28;20860;-63
2021/09/10 12:30:23;;;;;;;17.73;15.10;;;25.70;99.90;;;;;;5053706;28;20485;-63
2021/09/10 12:32:50;;;;;;;17.13;15.63;;;25.70;99.90;;;;;;5053073;28;20813;-64
2021/09/10 12:35:18;;;;;;;16.80;15.27;;;25.70;99.90;;;;;;5053435;28;20467;-64